sensor_id;sensor_type;location;lat;lon;timestamp;pressure;altitude;pressure_sealevel;temperature;humidity
78800;BME280;68148;55.328;86.106;2023-05-10T00:01:47;100562.59;;;4.02;49.18
78800;BME280;68148;55.328;86.106;2023-05-10T00:04:12;100560.34;;;3.97;49.43
78800;BME280;68148;55.328;86.106;2023-05-10T00:06:38;100560.19;;;4.10;49.37
78800;BME280;68148;55.328;86.106;2023-05-10T00:09:05;100572.00;;;4.25;48.45
78800;BME280;68148;55.328;86.106;2023-05-10T00:11:31;100576.31;;;4.15;48.56
78800;BME280;68148;55.328;86.106;2023-05-10T00:14:03;100574.63;;;4.25;48.16
78800;BME280;68148;55.328;86.106;2023-05-10T00:16:29;100574.63;;;4.25;48.24
78800;BME280;68148;55.328;86.106;2023-05-10T00:18:55;100571.28;;;4.23;48.27
78800;BME280;68148;55.328;86.106;2023-05-10T00:21:20;100584.63;;;4.20;48.40
78800;BME280;68148;55.328;86.106;2023-05-10T00:23:46;100578.06;;;4.26;48.95
78800;BME280;68148;55.328;86.106;2023-05-10T00:26:12;100577.03;;;4.17;48.86
78800;BME280;68148;55.328;86.106;2023-05-10T00:28:38;100582.25;;;4.17;48.57
78800;BME280;68148;55.328;86.106;2023-05-10T00:31:04;100588.53;;;4.15;48.72
78800;BME280;68148;55.328;86.106;2023-05-10T00:33:30;100591.41;;;4.12;48.70
78800;BME280;68148;55.328;86.106;2023-05-10T00:35:55;100580.84;;;4.13;48.57
78800;BME280;68148;55.328;86.106;2023-05-10T00:38:21;100596.00;;;4.19;49.21
78800;BME280;68148;55.328;86.106;2023-05-10T00:40:47;100598.13;;;4.25;48.58
78800;BME280;68148;55.328;86.106;2023-05-10T00:43:13;100598.81;;;4.27;48.36
78800;BME280;68148;55.328;86.106;2023-05-10T00:45:39;100596.22;;;4.27;48.50
78800;BME280;68148;55.328;86.106;2023-05-10T00:48:05;100594.25;;;4.41;48.28
78800;BME280;68148;55.328;86.106;2023-05-10T00:50:32;100600.41;;;4.51;48.17
78800;BME280;68148;55.328;86.106;2023-05-10T00:53:02;100599.97;;;4.67;48.33
78800;BME280;68148;55.328;86.106;2023-05-10T00:55:28;100598.41;;;4.75;47.53
78800;BME280;68148;55.328;86.106;2023-05-10T00:58:11;100608.97;;;4.95;46.98
78800;BME280;68148;55.328;86.106;2023-05-10T01:00:37;100610.16;;;4.91;46.64
78800;BME280;68148;55.328;86.106;2023-05-10T01:03:10;100594.81;;;4.76;46.77
78800;BME280;68148;55.328;86.106;2023-05-10T01:05:36;100597.63;;;4.85;47.33
78800;BME280;68148;55.328;86.106;2023-05-10T01:08:02;100596.41;;;4.89;46.33
78800;BME280;68148;55.328;86.106;2023-05-10T01:10:28;100604.25;;;4.89;47.01
78800;BME280;68148;55.328;86.106;2023-05-10T01:12:54;100601.63;;;4.89;47.12
78800;BME280;68148;55.328;86.106;2023-05-10T01:15:21;100613.66;;;5.01;46.65
78800;BME280;68148;55.328;86.106;2023-05-10T01:17:48;100617.19;;;5.11;46.41
78800;BME280;68148;55.328;86.106;2023-05-10T01:20:14;100614.63;;;5.21;46.55
78800;BME280;68148;55.328;86.106;2023-05-10T01:25:21;100599.47;;;5.24;45.70
78800;BME280;68148;55.328;86.106;2023-05-10T01:28:29;100602.94;;;5.25;45.93
78800;BME280;68148;55.328;86.106;2023-05-10T01:31:52;100608.34;;;5.33;46.01
78800;BME280;68148;55.328;86.106;2023-05-10T01:34:02;100618.44;;;5.47;45.05
78800;BME280;68148;55.328;86.106;2023-05-10T01:36:39;100611.88;;;5.53;45.31
78800;BME280;68148;55.328;86.106;2023-05-10T01:39:14;100626.13;;;5.70;45.08
78800;BME280;68148;55.328;86.106;2023-05-10T01:45:02;100619.94;;;5.71;44.81
78800;BME280;68148;55.328;86.106;2023-05-10T01:47:41;100624.22;;;5.82;44.60
78800;BME280;68148;55.328;86.106;2023-05-10T01:50:17;100629.56;;;6.01;44.13
78800;BME280;68148;55.328;86.106;2023-05-10T01:52:49;100630.69;;;6.08;44.33
78800;BME280;68148;55.328;86.106;2023-05-10T01:55:18;100629.56;;;6.20;44.66
78800;BME280;68148;55.328;86.106;2023-05-10T01:57:48;100631.81;;;6.35;44.29
78800;BME280;68148;55.328;86.106;2023-05-10T02:00:18;100631.53;;;6.47;43.92
78800;BME280;68148;55.328;86.106;2023-05-10T02:02:46;100630.31;;;6.51;43.93
78800;BME280;68148;55.328;86.106;2023-05-10T02:05:16;100635.25;;;6.64;42.65
78800;BME280;68148;55.328;86.106;2023-05-10T02:07:43;100633.75;;;6.62;42.73
78800;BME280;68148;55.328;86.106;2023-05-10T02:10:11;100640.66;;;6.72;42.00
78800;BME280;68148;55.328;86.106;2023-05-10T02:12:43;100634.28;;;6.65;41.96
78800;BME280;68148;55.328;86.106;2023-05-10T02:15:11;100641.03;;;6.87;42.16
78800;BME280;68148;55.328;86.106;2023-05-10T02:17:38;100637.31;;;6.70;41.27
78800;BME280;68148;55.328;86.106;2023-05-10T02:20:06;100640.50;;;6.74;42.49
78800;BME280;68148;55.328;86.106;2023-05-10T02:22:35;100638.13;;;6.90;42.40
78800;BME280;68148;55.328;86.106;2023-05-10T02:25:03;100629.97;;;6.93;41.35
78800;BME280;68148;55.328;86.106;2023-05-10T02:27:30;100631.75;;;6.93;40.70
78800;BME280;68148;55.328;86.106;2023-05-10T02:29:57;100637.28;;;6.99;41.01
78800;BME280;68148;55.328;86.106;2023-05-10T02:32:27;100654.50;;;7.21;40.43
78800;BME280;68148;55.328;86.106;2023-05-10T02:34:54;100655.09;;;7.15;39.99
78800;BME280;68148;55.328;86.106;2023-05-10T02:37:21;100645.25;;;7.17;39.83
78800;BME280;68148;55.328;86.106;2023-05-10T02:39:49;100652.16;;;7.18;41.08
78800;BME280;68148;55.328;86.106;2023-05-10T02:42:18;100658.91;;;7.31;40.63
78800;BME280;68148;55.328;86.106;2023-05-10T02:44:48;100651.16;;;7.39;39.81
78800;BME280;68148;55.328;86.106;2023-05-10T02:47:16;100651.31;;;7.27;40.43
78800;BME280;68148;55.328;86.106;2023-05-10T02:49:43;100654.19;;;7.34;40.23
78800;BME280;68148;55.328;86.106;2023-05-10T02:52:09;100646.25;;;7.53;39.82
78800;BME280;68148;55.328;86.106;2023-05-10T02:54:46;100648.13;;;7.71;38.68
78800;BME280;68148;55.328;86.106;2023-05-10T02:57:16;100655.72;;;7.74;38.58
78800;BME280;68148;55.328;86.106;2023-05-10T02:59:43;100659.50;;;7.62;38.15
78800;BME280;68148;55.328;86.106;2023-05-10T03:02:09;100662.81;;;7.64;37.62
78800;BME280;68148;55.328;86.106;2023-05-10T03:04:35;100663.75;;;7.72;36.76
78800;BME280;68148;55.328;86.106;2023-05-10T03:07:01;100655.41;;;7.77;36.86
78800;BME280;68148;55.328;86.106;2023-05-10T03:09:27;100656.69;;;7.73;37.29
78800;BME280;68148;55.328;86.106;2023-05-10T03:14:57;100654.50;;;7.96;36.67
78800;BME280;68148;55.328;86.106;2023-05-10T03:17:30;100659.81;;;7.86;36.45
78800;BME280;68148;55.328;86.106;2023-05-10T03:19:58;100651.91;;;8.14;35.20
78800;BME280;68148;55.328;86.106;2023-05-10T03:22:37;100645.66;;;7.97;36.54
78800;BME280;68148;55.328;86.106;2023-05-10T03:25:07;100663.28;;;8.32;34.77
78800;BME280;68148;55.328;86.106;2023-05-10T03:27:36;100661.59;;;8.13;35.43
78800;BME280;68148;55.328;86.106;2023-05-10T03:30:03;100665.78;;;8.06;35.27
78800;BME280;68148;55.328;86.106;2023-05-10T03:32:30;100666.47;;;8.08;35.70
78800;BME280;68148;55.328;86.106;2023-05-10T03:34:56;100657.84;;;8.34;35.28
78800;BME280;68148;55.328;86.106;2023-05-10T03:37:22;100662.47;;;8.32;35.10
78800;BME280;68148;55.328;86.106;2023-05-10T03:39:47;100650.09;;;8.42;35.24
78800;BME280;68148;55.328;86.106;2023-05-10T03:42:13;100665.78;;;8.51;34.19
78800;BME280;68148;55.328;86.106;2023-05-10T03:44:39;100654.34;;;8.43;34.77
78800;BME280;68148;55.328;86.106;2023-05-10T03:47:05;100649.56;;;8.38;34.75
78800;BME280;68148;55.328;86.106;2023-05-10T03:49:31;100664.75;;;8.35;34.98
78800;BME280;68148;55.328;86.106;2023-05-10T03:51:57;100656.31;;;8.59;34.23
78800;BME280;68148;55.328;86.106;2023-05-10T03:54:22;100658.88;;;8.50;35.22
78800;BME280;68148;55.328;86.106;2023-05-10T03:56:48;100648.88;;;8.54;34.36
78800;BME280;68148;55.328;86.106;2023-05-10T03:59:14;100656.31;;;8.59;35.40
78800;BME280;68148;55.328;86.106;2023-05-10T04:01:40;100643.31;;;8.75;33.72
78800;BME280;68148;55.328;86.106;2023-05-10T04:04:05;100662.56;;;8.75;33.38
78800;BME280;68148;55.328;86.106;2023-05-10T04:06:31;100653.97;;;8.73;32.39
78800;BME280;68148;55.328;86.106;2023-05-10T04:08:57;100669.47;;;8.59;33.35
78800;BME280;68148;55.328;86.106;2023-05-10T04:11:23;100655.66;;;8.74;33.15
78800;BME280;68148;55.328;86.106;2023-05-10T04:13:48;100647.22;;;8.71;33.51
78800;BME280;68148;55.328;86.106;2023-05-10T04:16:14;100652.94;;;8.84;33.78
78800;BME280;68148;55.328;86.106;2023-05-10T04:18:40;100647.91;;;8.91;33.90
78800;BME280;68148;55.328;86.106;2023-05-10T04:21:12;100649.09;;;8.78;33.37
78800;BME280;68148;55.328;86.106;2023-05-10T04:23:39;100656.16;;;8.96;34.10
78800;BME280;68148;55.328;86.106;2023-05-10T04:26:05;100651.59;;;9.06;33.28
78800;BME280;68148;55.328;86.106;2023-05-10T04:28:32;100641.06;;;9.06;33.34
78800;BME280;68148;55.328;86.106;2023-05-10T04:31:15;100645.41;;;9.15;33.21
78800;BME280;68148;55.328;86.106;2023-05-10T04:33:41;100648.25;;;9.22;33.00
78800;BME280;68148;55.328;86.106;2023-05-10T04:36:07;100657.16;;;9.47;31.97
78800;BME280;68148;55.328;86.106;2023-05-10T04:38:33;100655.41;;;9.38;32.07
78800;BME280;68148;55.328;86.106;2023-05-10T04:41:09;100654.47;;;9.39;31.65
78800;BME280;68148;55.328;86.106;2023-05-10T04:43:37;100676.00;;;9.34;31.79
78800;BME280;68148;55.328;86.106;2023-05-10T04:46:05;100655.41;;;9.30;31.31
78800;BME280;68148;55.328;86.106;2023-05-10T04:48:30;100657.34;;;9.27;31.78
78800;BME280;68148;55.328;86.106;2023-05-10T04:50:57;100670.47;;;9.19;30.51
78800;BME280;68148;55.328;86.106;2023-05-10T04:53:23;100660.28;;;9.24;31.31
78800;BME280;68148;55.328;86.106;2023-05-10T04:55:48;100648.50;;;9.37;31.71
78800;BME280;68148;55.328;86.106;2023-05-10T04:58:14;100665.34;;;9.44;30.90
78800;BME280;68148;55.328;86.106;2023-05-10T05:00:41;100666.34;;;9.43;30.59
78800;BME280;68148;55.328;86.106;2023-05-10T05:03:07;100637.97;;;9.37;30.78
78800;BME280;68148;55.328;86.106;2023-05-10T05:05:33;100665.25;;;9.27;31.11
78800;BME280;68148;55.328;86.106;2023-05-10T05:07:59;100657.41;;;9.36;30.85
78800;BME280;68148;55.328;86.106;2023-05-10T05:10:25;100685.19;;;9.56;30.95
78800;BME280;68148;55.328;86.106;2023-05-10T05:12:51;100667.75;;;9.63;30.65
78800;BME280;68148;55.328;86.106;2023-05-10T05:15:17;100663.28;;;9.56;30.75
78800;BME280;68148;55.328;86.106;2023-05-10T05:17:43;100651.28;;;9.61;30.67
78800;BME280;68148;55.328;86.106;2023-05-10T05:20:10;100658.41;;;9.69;30.87
78800;BME280;68148;55.328;86.106;2023-05-10T05:22:36;100655.47;;;9.80;30.98
78800;BME280;68148;55.328;86.106;2023-05-10T05:25:02;100662.41;;;9.81;30.83
78800;BME280;68148;55.328;86.106;2023-05-10T05:27:29;100661.47;;;9.90;30.19
78800;BME280;68148;55.328;86.106;2023-05-10T05:29:56;100649.09;;;9.91;30.11
78800;BME280;68148;55.328;86.106;2023-05-10T05:32:22;100660.63;;;9.90;30.47
78800;BME280;68148;55.328;86.106;2023-05-10T05:34:49;100657.16;;;9.81;29.81
78800;BME280;68148;55.328;86.106;2023-05-10T05:37:15;100651.38;;;9.86;30.08
78800;BME280;68148;55.328;86.106;2023-05-10T05:39:42;100657.53;;;9.94;29.26
78800;BME280;68148;55.328;86.106;2023-05-10T05:42:09;100651.72;;;9.91;29.22
78800;BME280;68148;55.328;86.106;2023-05-10T05:44:35;100651.09;;;9.97;28.69
78800;BME280;68148;55.328;86.106;2023-05-10T05:47:01;100649.44;;;9.96;29.47
78800;BME280;68148;55.328;86.106;2023-05-10T05:49:27;100619.16;;;10.08;29.45
78800;BME280;68148;55.328;86.106;2023-05-10T05:51:53;100639.97;;;10.27;29.50
78800;BME280;68148;55.328;86.106;2023-05-10T05:54:19;100652.81;;;10.22;28.67
78800;BME280;68148;55.328;86.106;2023-05-10T05:56:45;100645.59;;;10.24;29.17
78800;BME280;68148;55.328;86.106;2023-05-10T05:59:11;100641.97;;;10.25;29.22
78800;BME280;68148;55.328;86.106;2023-05-10T06:01:37;100648.88;;;10.26;28.09
78800;BME280;68148;55.328;86.106;2023-05-10T06:04:03;100654.22;;;10.43;28.12
78800;BME280;68148;55.328;86.106;2023-05-10T06:06:29;100653.84;;;10.30;28.47
78800;BME280;68148;55.328;86.106;2023-05-10T06:08:55;100648.59;;;10.38;28.67
78800;BME280;68148;55.328;86.106;2023-05-10T06:11:21;100652.56;;;10.42;28.14
78800;BME280;68148;55.328;86.106;2023-05-10T06:13:47;100649.25;;;10.48;27.83
78800;BME280;68148;55.328;86.106;2023-05-10T06:16:13;100658.75;;;10.16;28.31
78800;BME280;68148;55.328;86.106;2023-05-10T06:18:39;100655.31;;;10.24;28.07
78800;BME280;68148;55.328;86.106;2023-05-10T06:21:04;100644.00;;;10.56;27.58
78800;BME280;68148;55.328;86.106;2023-05-10T06:23:30;100649.94;;;10.58;27.30
78800;BME280;68148;55.328;86.106;2023-05-10T06:25:57;100649.09;;;10.41;27.43
78800;BME280;68148;55.328;86.106;2023-05-10T06:28:23;100654.53;;;10.56;27.53
78800;BME280;68148;55.328;86.106;2023-05-10T06:30:49;100642.69;;;10.60;26.87
78800;BME280;68148;55.328;86.106;2023-05-10T06:33:15;100647.97;;;10.76;27.70
78800;BME280;68148;55.328;86.106;2023-05-10T06:35:41;100646.97;;;10.86;27.70
78800;BME280;68148;55.328;86.106;2023-05-10T06:38:07;100648.28;;;10.98;27.24
78800;BME280;68148;55.328;86.106;2023-05-10T06:40:33;100639.34;;;11.07;26.99
78800;BME280;68148;55.328;86.106;2023-05-10T06:42:59;100647.97;;;11.09;26.35
78800;BME280;68148;55.328;86.106;2023-05-10T06:45:24;100647.63;;;10.96;26.19
78800;BME280;68148;55.328;86.106;2023-05-10T06:47:50;100662.00;;;10.85;25.93
78800;BME280;68148;55.328;86.106;2023-05-10T06:50:16;100647.28;;;10.74;26.04
78800;BME280;68148;55.328;86.106;2023-05-10T06:52:42;100676.84;;;11.11;24.21
78800;BME280;68148;55.328;86.106;2023-05-10T06:55:08;100659.84;;;10.97;24.99
78800;BME280;68148;55.328;86.106;2023-05-10T06:57:34;100662.63;;;10.95;24.71
78800;BME280;68148;55.328;86.106;2023-05-10T07:00:00;100670.88;;;11.00;25.01
78800;BME280;68148;55.328;86.106;2023-05-10T07:02:26;100650.09;;;10.97;24.85
78800;BME280;68148;55.328;86.106;2023-05-10T07:04:52;100646.97;;;11.10;25.64
78800;BME280;68148;55.328;86.106;2023-05-10T07:07:18;100641.16;;;11.15;24.06
78800;BME280;68148;55.328;86.106;2023-05-10T07:09:44;100641.31;;;11.21;24.50
78800;BME280;68148;55.328;86.106;2023-05-10T07:12:10;100646.91;;;11.35;24.86
78800;BME280;68148;55.328;86.106;2023-05-10T07:14:36;100643.03;;;11.62;23.99
78800;BME280;68148;55.328;86.106;2023-05-10T07:17:01;100661.41;;;11.39;24.56
78800;BME280;68148;55.328;86.106;2023-05-10T07:19:27;100631.53;;;11.30;23.61
78800;BME280;68148;55.328;86.106;2023-05-10T07:21:53;100665.00;;;11.62;22.71
78800;BME280;68148;55.328;86.106;2023-05-10T07:24:19;100654.13;;;11.57;23.23
78800;BME280;68148;55.328;86.106;2023-05-10T07:26:44;100663.06;;;11.48;23.86
78800;BME280;68148;55.328;86.106;2023-05-10T07:29:10;100654.97;;;11.41;24.17
78800;BME280;68148;55.328;86.106;2023-05-10T07:31:36;100641.81;;;11.25;24.85
78800;BME280;68148;55.328;86.106;2023-05-10T07:34:02;100648.06;;;11.32;24.98
78800;BME280;68148;55.328;86.106;2023-05-10T07:36:28;100639.59;;;11.53;24.38
78800;BME280;68148;55.328;86.106;2023-05-10T07:38:53;100652.78;;;11.61;23.38
78800;BME280;68148;55.328;86.106;2023-05-10T07:41:19;100626.78;;;11.73;23.92
78800;BME280;68148;55.328;86.106;2023-05-10T07:43:46;100648.78;;;11.73;23.88
78800;BME280;68148;55.328;86.106;2023-05-10T07:46:11;100645.78;;;11.85;24.23
78800;BME280;68148;55.328;86.106;2023-05-10T07:48:37;100653.72;;;11.76;24.02
78800;BME280;68148;55.328;86.106;2023-05-10T07:51:03;100634.25;;;11.69;24.09
78800;BME280;68148;55.328;86.106;2023-05-10T07:53:29;100653.91;;;11.67;24.02
78800;BME280;68148;55.328;86.106;2023-05-10T07:55:57;100644.94;;;11.76;24.46
78800;BME280;68148;55.328;86.106;2023-05-10T07:58:24;100651.34;;;11.98;24.05
78800;BME280;68148;55.328;86.106;2023-05-10T08:00:50;100663.06;;;12.03;23.59
78800;BME280;68148;55.328;86.106;2023-05-10T08:03:16;100661.38;;;12.02;23.38
78800;BME280;68148;55.328;86.106;2023-05-10T08:05:42;100654.66;;;12.00;23.19
78800;BME280;68148;55.328;86.106;2023-05-10T08:08:08;100653.34;;;11.96;23.51
78800;BME280;68148;55.328;86.106;2023-05-10T08:10:34;100650.69;;;11.96;23.09
78800;BME280;68148;55.328;86.106;2023-05-10T08:13:00;100653.25;;;12.12;23.76
78800;BME280;68148;55.328;86.106;2023-05-10T08:15:26;100646.69;;;12.31;23.22
78800;BME280;68148;55.328;86.106;2023-05-10T08:17:52;100654.44;;;12.33;22.94
78800;BME280;68148;55.328;86.106;2023-05-10T08:20:18;100643.31;;;12.14;23.41
78800;BME280;68148;55.328;86.106;2023-05-10T08:22:47;100658.03;;;12.40;22.72
78800;BME280;68148;55.328;86.106;2023-05-10T08:25:13;100656.50;;;12.45;22.82
78800;BME280;68148;55.328;86.106;2023-05-10T08:27:39;100660.75;;;12.32;22.93
78800;BME280;68148;55.328;86.106;2023-05-10T08:30:07;100652.41;;;12.43;22.89
78800;BME280;68148;55.328;86.106;2023-05-10T08:32:33;100657.00;;;12.49;22.91
78800;BME280;68148;55.328;86.106;2023-05-10T08:34:58;100638.88;;;12.38;22.48
78800;BME280;68148;55.328;86.106;2023-05-10T08:37:24;100642.13;;;12.48;22.88
78800;BME280;68148;55.328;86.106;2023-05-10T08:39:50;100663.72;;;12.60;23.08
78800;BME280;68148;55.328;86.106;2023-05-10T08:42:19;100656.75;;;12.59;22.35
78800;BME280;68148;55.328;86.106;2023-05-10T08:44:48;100654.19;;;12.50;22.19
78800;BME280;68148;55.328;86.106;2023-05-10T08:47:16;100649.34;;;12.54;22.44
78800;BME280;68148;55.328;86.106;2023-05-10T08:49:47;100659.25;;;12.60;21.58
78800;BME280;68148;55.328;86.106;2023-05-10T08:52:15;100656.22;;;12.63;21.78
78800;BME280;68148;55.328;86.106;2023-05-10T08:54:42;100651.34;;;12.52;22.10
78800;BME280;68148;55.328;86.106;2023-05-10T08:57:10;100655.97;;;12.50;21.89
78800;BME280;68148;55.328;86.106;2023-05-10T08:59:36;100656.13;;;12.57;21.28
78800;BME280;68148;55.328;86.106;2023-05-10T09:02:02;100654.06;;;12.44;21.20
78800;BME280;68148;55.328;86.106;2023-05-10T09:04:29;100645.34;;;12.58;21.04
78800;BME280;68148;55.328;86.106;2023-05-10T09:06:56;100670.41;;;12.70;20.66
78800;BME280;68148;55.328;86.106;2023-05-10T09:09:23;100662.75;;;12.75;21.06
78800;BME280;68148;55.328;86.106;2023-05-10T09:11:51;100647.44;;;12.63;21.29
78800;BME280;68148;55.328;86.106;2023-05-10T09:14:17;100646.03;;;12.75;20.96
78800;BME280;68148;55.328;86.106;2023-05-10T09:16:44;100644.16;;;12.84;20.08
78800;BME280;68148;55.328;86.106;2023-05-10T09:19:10;100644.16;;;12.84;20.68
78800;BME280;68148;55.328;86.106;2023-05-10T09:21:37;100653.63;;;13.16;20.57
78800;BME280;68148;55.328;86.106;2023-05-10T09:24:04;100661.63;;;13.31;20.15
78800;BME280;68148;55.328;86.106;2023-05-10T09:26:30;100660.38;;;13.18;19.80
78800;BME280;68148;55.328;86.106;2023-05-10T09:28:58;100660.47;;;13.10;21.01
78800;BME280;68148;55.328;86.106;2023-05-10T09:31:24;100662.94;;;13.12;20.51
78800;BME280;68148;55.328;86.106;2023-05-10T09:34:11;100662.53;;;13.23;20.52
78800;BME280;68148;55.328;86.106;2023-05-10T09:36:52;100655.63;;;12.99;20.33
78800;BME280;68148;55.328;86.106;2023-05-10T09:39:18;100673.81;;;13.02;20.22
78800;BME280;68148;55.328;86.106;2023-05-10T09:41:43;100670.50;;;13.00;20.12
78800;BME280;68148;55.328;86.106;2023-05-10T09:44:09;100655.88;;;13.04;20.76
78800;BME280;68148;55.328;86.106;2023-05-10T09:46:35;100671.78;;;13.04;19.94
78800;BME280;68148;55.328;86.106;2023-05-10T09:49:01;100662.28;;;12.95;20.01
78800;BME280;68148;55.328;86.106;2023-05-10T09:51:27;100665.75;;;13.10;20.57
78800;BME280;68148;55.328;86.106;2023-05-10T09:54:13;100666.66;;;13.25;19.48
78800;BME280;68148;55.328;86.106;2023-05-10T09:56:39;100657.72;;;13.18;19.42
78800;BME280;68148;55.328;86.106;2023-05-10T09:59:06;100663.22;;;13.02;19.69
78800;BME280;68148;55.328;86.106;2023-05-10T10:01:33;100655.69;;;12.91;19.44
78800;BME280;68148;55.328;86.106;2023-05-10T10:04:01;100670.44;;;13.08;19.15
78800;BME280;68148;55.328;86.106;2023-05-10T10:06:28;100663.56;;;12.99;18.54
78800;BME280;68148;55.328;86.106;2023-05-10T10:08:54;100668.03;;;12.75;19.02
78800;BME280;68148;55.328;86.106;2023-05-10T10:11:20;100672.28;;;12.85;19.27
78800;BME280;68148;55.328;86.106;2023-05-10T10:13:46;100679.13;;;13.02;19.39
78800;BME280;68148;55.328;86.106;2023-05-10T10:16:12;100672.59;;;13.04;19.08
78800;BME280;68148;55.328;86.106;2023-05-10T10:18:38;100674.84;;;12.93;19.26
78800;BME280;68148;55.328;86.106;2023-05-10T10:21:07;100678.16;;;12.95;19.45
78800;BME280;68148;55.328;86.106;2023-05-10T10:23:34;100675.09;;;13.06;19.03
78800;BME280;68148;55.328;86.106;2023-05-10T10:26:02;100679.38;;;13.30;18.79
78800;BME280;68148;55.328;86.106;2023-05-10T10:28:37;100677.91;;;13.27;18.39
78800;BME280;68148;55.328;86.106;2023-05-10T10:31:32;100682.38;;;13.04;18.55
78800;BME280;68148;55.328;86.106;2023-05-10T10:34:10;100684.16;;;12.89;18.58
78800;BME280;68148;55.328;86.106;2023-05-10T10:36:46;100682.03;;;13.07;18.90
78800;BME280;68148;55.328;86.106;2023-05-10T10:39:12;100681.22;;;13.07;19.47
78800;BME280;68148;55.328;86.106;2023-05-10T10:41:48;100683.84;;;13.30;19.09
78800;BME280;68148;55.328;86.106;2023-05-10T10:44:24;100676.81;;;13.37;18.84
78800;BME280;68148;55.328;86.106;2023-05-10T10:49:37;100686.84;;;13.26;18.64
78800;BME280;68148;55.328;86.106;2023-05-10T10:52:30;100689.25;;;13.36;19.01
78800;BME280;68148;55.328;86.106;2023-05-10T10:57:43;100686.69;;;13.28;18.48
78800;BME280;68148;55.328;86.106;2023-05-10T11:03:09;100681.97;;;13.15;18.70
78800;BME280;68148;55.328;86.106;2023-05-10T11:05:40;100688.41;;;13.36;18.65
78800;BME280;68148;55.328;86.106;2023-05-10T11:08:25;100682.31;;;13.50;18.64
78800;BME280;68148;55.328;86.106;2023-05-10T11:10:54;100683.22;;;13.57;18.39
78800;BME280;68148;55.328;86.106;2023-05-10T11:13:40;100675.91;;;13.59;18.63
78800;BME280;68148;55.328;86.106;2023-05-10T11:18:39;100681.84;;;13.61;18.38
78800;BME280;68148;55.328;86.106;2023-05-10T11:21:08;100678.63;;;14.10;18.56
78800;BME280;68148;55.328;86.106;2023-05-10T11:26:09;100684.72;;;14.47;17.73
78800;BME280;68148;55.328;86.106;2023-05-10T11:28:41;100662.63;;;14.40;17.51
78800;BME280;68148;55.328;86.106;2023-05-10T11:31:07;100685.25;;;14.21;17.69
78800;BME280;68148;55.328;86.106;2023-05-10T11:33:54;100691.47;;;14.28;17.53
78800;BME280;68148;55.328;86.106;2023-05-10T11:36:23;100682.59;;;14.36;17.75
78800;BME280;68148;55.328;86.106;2023-05-10T11:38:50;100688.78;;;14.43;17.52
78800;BME280;68148;55.328;86.106;2023-05-10T11:41:18;100684.59;;;14.34;17.18
78800;BME280;68148;55.328;86.106;2023-05-10T11:43:46;100680.50;;;14.31;17.80
78800;BME280;68148;55.328;86.106;2023-05-10T11:46:13;100668.59;;;14.63;17.03
78800;BME280;68148;55.328;86.106;2023-05-10T11:48:40;100672.75;;;14.51;17.29
78800;BME280;68148;55.328;86.106;2023-05-10T11:51:10;100665.44;;;14.74;16.77
78800;BME280;68148;55.328;86.106;2023-05-10T11:53:43;100669.47;;;14.49;17.57
78800;BME280;68148;55.328;86.106;2023-05-10T11:56:09;100675.50;;;14.58;17.70
78800;BME280;68148;55.328;86.106;2023-05-10T11:58:37;100672.31;;;14.90;17.65
78800;BME280;68148;55.328;86.106;2023-05-10T12:01:05;100666.13;;;15.11;17.72
78800;BME280;68148;55.328;86.106;2023-05-10T12:03:32;100669.00;;;15.10;17.06
78800;BME280;68148;55.328;86.106;2023-05-10T12:05:59;100672.31;;;15.18;17.26
78800;BME280;68148;55.328;86.106;2023-05-10T12:08:27;100672.56;;;15.23;16.62
78800;BME280;68148;55.328;86.106;2023-05-10T12:11:03;100667.97;;;15.11;16.63
78800;BME280;68148;55.328;86.106;2023-05-10T12:13:29;100668.00;;;14.89;17.23
78800;BME280;68148;55.328;86.106;2023-05-10T12:15:57;100671.72;;;15.16;16.71
78800;BME280;68148;55.328;86.106;2023-05-10T12:18:23;100670.81;;;15.37;16.43
78800;BME280;68148;55.328;86.106;2023-05-10T12:20:52;100664.88;;;15.35;16.57
78800;BME280;68148;55.328;86.106;2023-05-10T12:23:19;100667.91;;;15.32;17.02
78800;BME280;68148;55.328;86.106;2023-05-10T12:25:46;100671.84;;;15.64;16.04
78800;BME280;68148;55.328;86.106;2023-05-10T12:28:12;100671.25;;;15.41;16.26
78800;BME280;68148;55.328;86.106;2023-05-10T12:30:38;100670.25;;;15.14;15.94
78800;BME280;68148;55.328;86.106;2023-05-10T12:33:12;100671.06;;;15.14;16.67
78800;BME280;68148;55.328;86.106;2023-05-10T12:35:54;100672.75;;;15.22;16.26
78800;BME280;68148;55.328;86.106;2023-05-10T12:38:27;100675.06;;;15.32;15.78
78800;BME280;68148;55.328;86.106;2023-05-10T12:40:53;100675.63;;;15.20;15.91
78800;BME280;68148;55.328;86.106;2023-05-10T12:43:19;100679.72;;;14.95;16.46
78800;BME280;68148;55.328;86.106;2023-05-10T12:45:45;100670.63;;;14.83;16.06
78800;BME280;68148;55.328;86.106;2023-05-10T12:48:10;100674.09;;;14.83;16.64
78800;BME280;68148;55.328;86.106;2023-05-10T12:50:36;100673.53;;;14.88;15.78
78800;BME280;68148;55.328;86.106;2023-05-10T12:53:02;100673.72;;;14.86;16.29
78800;BME280;68148;55.328;86.106;2023-05-10T12:55:28;100676.91;;;14.82;16.17
78800;BME280;68148;55.328;86.106;2023-05-10T12:57:53;100676.44;;;14.71;16.10
78800;BME280;68148;55.328;86.106;2023-05-10T13:00:19;100683.59;;;14.71;16.45
78800;BME280;68148;55.328;86.106;2023-05-10T13:02:45;100682.06;;;14.47;16.37
78800;BME280;68148;55.328;86.106;2023-05-10T13:05:10;100675.16;;;14.89;16.56
78800;BME280;68148;55.328;86.106;2023-05-10T13:07:36;100680.34;;;14.97;16.36
78800;BME280;68148;55.328;86.106;2023-05-10T13:10:02;100676.09;;;14.81;16.13
78800;BME280;68148;55.328;86.106;2023-05-10T13:12:28;100685.06;;;14.73;15.88